sensor_id;sensor_type;location;lat;lon;timestamp;P1;durP1;ratioP1;P2;durP2;ratioP2
4595;SDS011;2310;49.978;8.742;2023-03-17T00:00:13;11.60;;;7.77;;
4595;SDS011;2310;49.978;8.742;2023-03-17T00:04:16;8.80;;;7.50;;
4595;SDS011;2310;49.978;8.742;2023-03-17T00:08:20;9.97;;;7.00;;
4595;SDS011;2310;49.978;8.742;2023-03-17T00:12:23;10.40;;;8.40;;
4595;SDS011;2310;49.978;8.742;2023-03-17T00:16:25;8.67;;;6.77;;
4595;SDS011;2310;49.978;8.742;2023-03-17T00:20:28;8.13;;;6.97;;
4595;SDS011;2310;49.978;8.742;2023-03-17T00:24:32;10.90;;;7.13;;
4595;SDS011;2310;49.978;8.742;2023-03-17T00:28:34;9.37;;;6.60;;
4595;SDS011;2310;49.978;8.742;2023-03-17T00:32:35;9.17;;;6.70;;
4595;SDS011;2310;49.978;8.742;2023-03-17T00:36:38;9.10;;;7.30;;
4595;SDS011;2310;49.978;8.742;2023-03-17T00:40:39;9.67;;;7.30;;
4595;SDS011;2310;49.978;8.742;2023-03-17T00:44:40;8.37;;;6.53;;
4595;SDS011;2310;49.978;8.742;2023-03-17T00:48:42;8.07;;;6.27;;
4595;SDS011;2310;49.978;8.742;2023-03-17T00:52:45;9.40;;;7.33;;
4595;SDS011;2310;49.978;8.742;2023-03-17T00:56:46;10.37;;;7.03;;
4595;SDS011;2310;49.978;8.742;2023-03-17T01:00:49;9.43;;;7.00;;
4595;SDS011;2310;49.978;8.742;2023-03-17T01:04:50;9.33;;;7.00;;
4595;SDS011;2310;49.978;8.742;2023-03-17T01:08:53;8.63;;;7.20;;
4595;SDS011;2310;49.978;8.742;2023-03-17T01:12:55;13.10;;;6.90;;
4595;SDS011;2310;49.978;8.742;2023-03-17T01:16:58;8.73;;;6.80;;
4595;SDS011;2310;49.978;8.742;2023-03-17T01:20:59;8.83;;;7.20;;
4595;SDS011;2310;49.978;8.742;2023-03-17T01:25:01;9.97;;;7.47;;
4595;SDS011;2310;49.978;8.742;2023-03-17T01:29:02;8.23;;;7.33;;
4595;SDS011;2310;49.978;8.742;2023-03-17T01:33:06;8.77;;;6.27;;
4595;SDS011;2310;49.978;8.742;2023-03-17T01:37:09;15.87;;;7.50;;
4595;SDS011;2310;49.978;8.742;2023-03-17T01:41:10;9.30;;;7.43;;
4595;SDS011;2310;49.978;8.742;2023-03-17T01:46:16;10.60;;;7.63;;
4595;SDS011;2310;49.978;8.742;2023-03-17T01:49:43;8.77;;;7.27;;
4595;SDS011;2310;49.978;8.742;2023-03-17T01:53:45;8.80;;;7.17;;
4595;SDS011;2310;49.978;8.742;2023-03-17T01:57:49;8.13;;;6.93;;
4595;SDS011;2310;49.978;8.742;2023-03-17T02:01:56;8.13;;;6.70;;
4595;SDS011;2310;49.978;8.742;2023-03-17T02:05:59;7.50;;;6.20;;
4595;SDS011;2310;49.978;8.742;2023-03-17T02:10:02;9.00;;;6.60;;
4595;SDS011;2310;49.978;8.742;2023-03-17T02:14:05;12.53;;;7.43;;
4595;SDS011;2310;49.978;8.742;2023-03-17T02:18:07;9.20;;;7.40;;
4595;SDS011;2310;49.978;8.742;2023-03-17T02:22:11;9.00;;;7.10;;
4595;SDS011;2310;49.978;8.742;2023-03-17T02:26:12;9.90;;;7.50;;
4595;SDS011;2310;49.978;8.742;2023-03-17T02:30:17;8.87;;;7.30;;
4595;SDS011;2310;49.978;8.742;2023-03-17T02:34:19;9.10;;;7.50;;
4595;SDS011;2310;49.978;8.742;2023-03-17T02:38:20;7.93;;;6.40;;
4595;SDS011;2310;49.978;8.742;2023-03-17T02:42:22;11.63;;;7.43;;
4595;SDS011;2310;49.978;8.742;2023-03-17T02:46:23;11.20;;;7.27;;
4595;SDS011;2310;49.978;8.742;2023-03-17T02:50:25;8.13;;;6.70;;
4595;SDS011;2310;49.978;8.742;2023-03-17T02:54:28;10.60;;;7.53;;
4595;SDS011;2310;49.978;8.742;2023-03-17T02:58:30;10.20;;;7.70;;
4595;SDS011;2310;49.978;8.742;2023-03-17T03:02:31;9.40;;;7.50;;
4595;SDS011;2310;49.978;8.742;2023-03-17T03:06:33;13.13;;;7.43;;
4595;SDS011;2310;49.978;8.742;2023-03-17T03:10:34;7.00;;;5.90;;
4595;SDS011;2310;49.978;8.742;2023-03-17T03:14:36;8.93;;;7.30;;
4595;SDS011;2310;49.978;8.742;2023-03-17T03:18:37;7.80;;;6.57;;
4595;SDS011;2310;49.978;8.742;2023-03-17T03:22:39;8.33;;;7.53;;
4595;SDS011;2310;49.978;8.742;2023-03-17T03:26:40;9.33;;;7.20;;
4595;SDS011;2310;49.978;8.742;2023-03-17T03:30:42;8.80;;;6.67;;
4595;SDS011;2310;49.978;8.742;2023-03-17T03:34:44;8.47;;;6.53;;
4595;SDS011;2310;49.978;8.742;2023-03-17T03:38:45;8.70;;;6.67;;
4595;SDS011;2310;49.978;8.742;2023-03-17T03:42:46;8.87;;;6.33;;
4595;SDS011;2310;49.978;8.742;2023-03-17T03:46:48;8.57;;;6.67;;
4595;SDS011;2310;49.978;8.742;2023-03-17T03:50:49;9.03;;;6.37;;
4595;SDS011;2310;49.978;8.742;2023-03-17T03:54:50;8.30;;;7.37;;
4595;SDS011;2310;49.978;8.742;2023-03-17T03:58:51;7.87;;;6.53;;
4595;SDS011;2310;49.978;8.742;2023-03-17T04:02:52;7.53;;;6.50;;
4595;SDS011;2310;49.978;8.742;2023-03-17T04:06:53;8.20;;;6.77;;
4595;SDS011;2310;49.978;8.742;2023-03-17T04:10:55;8.17;;;7.00;;
4595;SDS011;2310;49.978;8.742;2023-03-17T04:14:56;9.23;;;7.20;;
4595;SDS011;2310;49.978;8.742;2023-03-17T04:18:57;11.60;;;6.83;;
4595;SDS011;2310;49.978;8.742;2023-03-17T04:22:58;9.23;;;7.20;;
4595;SDS011;2310;49.978;8.742;2023-03-17T04:27:00;7.80;;;6.70;;
4595;SDS011;2310;49.978;8.742;2023-03-17T04:31:03;7.17;;;6.37;;
4595;SDS011;2310;49.978;8.742;2023-03-17T04:35:05;8.20;;;6.30;;
4595;SDS011;2310;49.978;8.742;2023-03-17T04:39:09;8.23;;;6.90;;
4595;SDS011;2310;49.978;8.742;2023-03-17T04:43:10;9.17;;;7.00;;
4595;SDS011;2310;49.978;8.742;2023-03-17T04:47:11;12.33;;;8.30;;
4595;SDS011;2310;49.978;8.742;2023-03-17T04:51:13;7.93;;;6.77;;
4595;SDS011;2310;49.978;8.742;2023-03-17T04:55:14;9.33;;;6.97;;
4595;SDS011;2310;49.978;8.742;2023-03-17T04:59:16;8.83;;;7.10;;
4595;SDS011;2310;49.978;8.742;2023-03-17T05:03:17;10.00;;;7.70;;
4595;SDS011;2310;49.978;8.742;2023-03-17T05:07:21;9.43;;;7.10;;
4595;SDS011;2310;49.978;8.742;2023-03-17T05:11:22;8.30;;;6.87;;
4595;SDS011;2310;49.978;8.742;2023-03-17T05:15:24;8.53;;;7.57;;
4595;SDS011;2310;49.978;8.742;2023-03-17T05:19:25;9.90;;;7.57;;
4595;SDS011;2310;49.978;8.742;2023-03-17T05:23:26;10.87;;;7.73;;
4595;SDS011;2310;49.978;8.742;2023-03-17T05:27:27;10.00;;;7.80;;
4595;SDS011;2310;49.978;8.742;2023-03-17T05:31:29;9.40;;;7.93;;
4595;SDS011;2310;49.978;8.742;2023-03-17T05:35:31;11.10;;;9.00;;
4595;SDS011;2310;49.978;8.742;2023-03-17T05:39:32;8.13;;;7.30;;
4595;SDS011;2310;49.978;8.742;2023-03-17T05:43:33;8.50;;;7.50;;
4595;SDS011;2310;49.978;8.742;2023-03-17T05:47:35;10.50;;;8.10;;
4595;SDS011;2310;49.978;8.742;2023-03-17T05:51:36;10.10;;;8.80;;
4595;SDS011;2310;49.978;8.742;2023-03-17T05:55:37;9.73;;;8.20;;
4595;SDS011;2310;49.978;8.742;2023-03-17T05:59:39;9.17;;;6.80;;
4595;SDS011;2310;49.978;8.742;2023-03-17T06:03:40;12.00;;;8.87;;
4595;SDS011;2310;49.978;8.742;2023-03-17T06:07:42;10.70;;;8.40;;
4595;SDS011;2310;49.978;8.742;2023-03-17T06:11:45;11.20;;;9.00;;
4595;SDS011;2310;49.978;8.742;2023-03-17T06:15:46;16.13;;;8.63;;
4595;SDS011;2310;49.978;8.742;2023-03-17T06:19:51;8.83;;;7.93;;
4595;SDS011;2310;49.978;8.742;2023-03-17T06:23:52;12.23;;;8.93;;
4595;SDS011;2310;49.978;8.742;2023-03-17T06:27:54;11.00;;;8.83;;
4595;SDS011;2310;49.978;8.742;2023-03-17T06:31:55;12.50;;;8.77;;
4595;SDS011;2310;49.978;8.742;2023-03-17T06:35:59;11.87;;;9.27;;
4595;SDS011;2310;49.978;8.742;2023-03-17T06:40:00;11.23;;;9.30;;
4595;SDS011;2310;49.978;8.742;2023-03-17T06:44:01;10.63;;;7.90;;
4595;SDS011;2310;49.978;8.742;2023-03-17T06:48:05;10.60;;;9.50;;
4595;SDS011;2310;49.978;8.742;2023-03-17T06:52:06;9.70;;;8.20;;
4595;SDS011;2310;49.978;8.742;2023-03-17T06:56:08;10.63;;;9.50;;
4595;SDS011;2310;49.978;8.742;2023-03-17T07:00:11;9.40;;;8.07;;
4595;SDS011;2310;49.978;8.742;2023-03-17T07:04:14;9.47;;;8.33;;
4595;SDS011;2310;49.978;8.742;2023-03-17T07:08:15;10.63;;;9.07;;
4595;SDS011;2310;49.978;8.742;2023-03-17T07:12:17;10.40;;;8.50;;
4595;SDS011;2310;49.978;8.742;2023-03-17T07:16:18;8.83;;;7.93;;
4595;SDS011;2310;49.978;8.742;2023-03-17T07:20:20;9.20;;;7.70;;
4595;SDS011;2310;49.978;8.742;2023-03-17T07:24:22;8.50;;;7.50;;
4595;SDS011;2310;49.978;8.742;2023-03-17T07:28:24;10.67;;;7.73;;
4595;SDS011;2310;49.978;8.742;2023-03-17T07:32:25;8.77;;;7.30;;
4595;SDS011;2310;49.978;8.742;2023-03-17T07:36:26;8.40;;;7.40;;
4595;SDS011;2310;49.978;8.742;2023-03-17T07:40:27;8.40;;;7.60;;
4595;SDS011;2310;49.978;8.742;2023-03-17T07:44:29;8.90;;;7.50;;
4595;SDS011;2310;49.978;8.742;2023-03-17T07:48:31;8.00;;;7.20;;
4595;SDS011;2310;49.978;8.742;2023-03-17T07:52:33;9.63;;;7.57;;
4595;SDS011;2310;49.978;8.742;2023-03-17T07:56:34;8.23;;;7.40;;
4595;SDS011;2310;49.978;8.742;2023-03-17T08:00:35;9.63;;;7.00;;
4595;SDS011;2310;49.978;8.742;2023-03-17T08:04:37;8.30;;;6.77;;
4595;SDS011;2310;49.978;8.742;2023-03-17T08:08:38;8.40;;;7.00;;
4595;SDS011;2310;49.978;8.742;2023-03-17T08:12:39;10.60;;;6.97;;
4595;SDS011;2310;49.978;8.742;2023-03-17T08:16:42;8.10;;;6.90;;
4595;SDS011;2310;49.978;8.742;2023-03-17T08:20:43;8.20;;;7.07;;
4595;SDS011;2310;49.978;8.742;2023-03-17T08:24:44;6.73;;;5.60;;
4595;SDS011;2310;49.978;8.742;2023-03-17T08:28:46;9.13;;;7.97;;
4595;SDS011;2310;49.978;8.742;2023-03-17T08:32:48;8.20;;;7.30;;
4595;SDS011;2310;49.978;8.742;2023-03-17T08:36:49;8.03;;;6.70;;
4595;SDS011;2310;49.978;8.742;2023-03-17T08:40:51;8.27;;;7.47;;
4595;SDS011;2310;49.978;8.742;2023-03-17T08:44:52;8.20;;;7.07;;
4595;SDS011;2310;49.978;8.742;2023-03-17T08:48:54;8.20;;;6.90;;
4595;SDS011;2310;49.978;8.742;2023-03-17T08:52:56;8.83;;;6.90;;
4595;SDS011;2310;49.978;8.742;2023-03-17T08:56:57;7.83;;;5.70;;
4595;SDS011;2310;49.978;8.742;2023-03-17T09:01:00;7.30;;;6.60;;
4595;SDS011;2310;49.978;8.742;2023-03-17T09:05:03;6.70;;;6.00;;
4595;SDS011;2310;49.978;8.742;2023-03-17T09:09:05;8.50;;;6.60;;
4595;SDS011;2310;49.978;8.742;2023-03-17T09:13:07;8.13;;;6.50;;
4595;SDS011;2310;49.978;8.742;2023-03-17T09:17:09;5.73;;;5.13;;
4595;SDS011;2310;49.978;8.742;2023-03-17T09:21:11;7.73;;;6.40;;
4595;SDS011;2310;49.978;8.742;2023-03-17T09:25:14;7.63;;;5.70;;
4595;SDS011;2310;49.978;8.742;2023-03-17T09:29:16;8.70;;;6.93;;
4595;SDS011;2310;49.978;8.742;2023-03-17T09:33:17;8.03;;;4.80;;
4595;SDS011;2310;49.978;8.742;2023-03-17T09:37:18;6.00;;;5.40;;
4595;SDS011;2310;49.978;8.742;2023-03-17T09:45:33;6.03;;;5.10;;
4595;SDS011;2310;49.978;8.742;2023-03-17T09:49:48;16.13;;;7.60;;
4595;SDS011;2310;49.978;8.742;2023-03-17T09:58:00;6.73;;;5.10;;
4595;SDS011;2310;49.978;8.742;2023-03-17T10:02:08;5.73;;;5.13;;
4595;SDS011;2310;49.978;8.742;2023-03-17T10:06:14;6.93;;;5.40;;
4595;SDS011;2310;49.978;8.742;2023-03-17T10:10:28;5.70;;;5.10;;
4595;SDS011;2310;49.978;8.742;2023-03-17T10:14:53;7.33;;;5.40;;
4595;SDS011;2310;49.978;8.742;2023-03-17T10:19:01;6.00;;;4.30;;
4595;SDS011;2310;49.978;8.742;2023-03-17T10:23:10;8.53;;;4.90;;
4595;SDS011;2310;49.978;8.742;2023-03-17T10:27:13;6.00;;;5.40;;
4595;SDS011;2310;49.978;8.742;2023-03-17T10:31:17;5.77;;;5.07;;
4595;SDS011;2310;49.978;8.742;2023-03-17T10:35:21;5.20;;;4.43;;
4595;SDS011;2310;49.978;8.742;2023-03-17T10:39:23;5.20;;;4.70;;
4595;SDS011;2310;49.978;8.742;2023-03-17T10:43:34;7.53;;;4.03;;
4595;SDS011;2310;49.978;8.742;2023-03-17T10:47:46;8.07;;;4.60;;
4595;SDS011;2310;49.978;8.742;2023-03-17T10:51:46;6.03;;;4.60;;
4595;SDS011;2310;49.978;8.742;2023-03-17T10:55:51;4.67;;;4.00;;
4595;SDS011;2310;49.978;8.742;2023-03-17T10:59:53;8.60;;;5.00;;
4595;SDS011;2310;49.978;8.742;2023-03-17T11:03:58;4.90;;;3.80;;
4595;SDS011;2310;49.978;8.742;2023-03-17T11:08:06;4.50;;;4.00;;
4595;SDS011;2310;49.978;8.742;2023-03-17T11:16:26;5.33;;;3.53;;
4595;SDS011;2310;49.978;8.742;2023-03-17T11:20:44;5.73;;;4.20;;
4595;SDS011;2310;49.978;8.742;2023-03-17T11:34:12;4.87;;;3.83;;
4595;SDS011;2310;49.978;8.742;2023-03-17T11:42:22;5.33;;;4.40;;
4595;SDS011;2310;49.978;8.742;2023-03-17T11:46:28;5.67;;;4.10;;
4595;SDS011;2310;49.978;8.742;2023-03-17T11:50:49;5.80;;;4.50;;
4595;SDS011;2310;49.978;8.742;2023-03-17T11:54:56;5.97;;;4.43;;
4595;SDS011;2310;49.978;8.742;2023-03-17T11:59:06;5.10;;;3.47;;
4595;SDS011;2310;49.978;8.742;2023-03-17T12:03:17;5.33;;;4.17;;
4595;SDS011;2310;49.978;8.742;2023-03-17T12:07:43;6.67;;;2.77;;
4595;SDS011;2310;49.978;8.742;2023-03-17T12:11:52;4.13;;;3.33;;
4595;SDS011;2310;49.978;8.742;2023-03-17T12:15:56;4.70;;;3.40;;
4595;SDS011;2310;49.978;8.742;2023-03-17T12:20:19;4.70;;;3.90;;
4595;SDS011;2310;49.978;8.742;2023-03-17T12:28:43;5.20;;;3.60;;
4595;SDS011;2310;49.978;8.742;2023-03-17T12:32:57;4.47;;;3.83;;
4595;SDS011;2310;49.978;8.742;2023-03-17T12:37:01;4.57;;;3.37;;
4595;SDS011;2310;49.978;8.742;2023-03-17T12:54:39;4.33;;;3.43;;
4595;SDS011;2310;49.978;8.742;2023-03-17T12:58:37;5.00;;;3.40;;
4595;SDS011;2310;49.978;8.742;2023-03-17T13:02:40;8.63;;;2.93;;
4595;SDS011;2310;49.978;8.742;2023-03-17T13:06:47;5.30;;;3.37;;
4595;SDS011;2310;49.978;8.742;2023-03-17T13:19:54;5.10;;;3.70;;
4595;SDS011;2310;49.978;8.742;2023-03-17T13:28:39;4.00;;;2.53;;
4595;SDS011;2310;49.978;8.742;2023-03-17T13:32:37;4.30;;;2.90;;
4595;SDS011;2310;49.978;8.742;2023-03-17T13:36:41;3.40;;;2.50;;
4595;SDS011;2310;49.978;8.742;2023-03-17T13:40:46;4.77;;;3.10;;
4595;SDS011;2310;49.978;8.742;2023-03-17T13:44:54;4.10;;;2.90;;
4595;SDS011;2310;49.978;8.742;2023-03-17T13:49:12;4.73;;;2.50;;
4595;SDS011;2310;49.978;8.742;2023-03-17T13:53:06;4.00;;;2.60;;
4595;SDS011;2310;49.978;8.742;2023-03-17T13:57:33;4.80;;;2.63;;
4595;SDS011;2310;49.978;8.742;2023-03-17T14:01:44;4.00;;;2.80;;
4595;SDS011;2310;49.978;8.742;2023-03-17T14:05:47;5.63;;;3.10;;
4595;SDS011;2310;49.978;8.742;2023-03-17T14:09:52;3.70;;;2.20;;
4595;SDS011;2310;49.978;8.742;2023-03-17T14:18:32;4.57;;;2.37;;
4595;SDS011;2310;49.978;8.742;2023-03-17T14:22:30;3.63;;;2.40;;
4595;SDS011;2310;49.978;8.742;2023-03-17T14:26:32;4.77;;;2.73;;
4595;SDS011;2310;49.978;8.742;2023-03-17T14:30:34;6.93;;;2.50;;
4595;SDS011;2310;49.978;8.742;2023-03-17T14:34:41;3.73;;;2.27;;
4595;SDS011;2310;49.978;8.742;2023-03-17T14:38:46;3.83;;;2.40;;
4595;SDS011;2310;49.978;8.742;2023-03-17T14:42:48;15.23;;;12.20;;
4595;SDS011;2310;49.978;8.742;2023-03-17T14:46:50;5.40;;;3.40;;
4595;SDS011;2310;49.978;8.742;2023-03-17T14:51:01;4.23;;;2.70;;
4595;SDS011;2310;49.978;8.742;2023-03-17T14:55:11;4.87;;;2.40;;
4595;SDS011;2310;49.978;8.742;2023-03-17T15:03:50;3.23;;;1.97;;
4595;SDS011;2310;49.978;8.742;2023-03-17T15:07:53;4.37;;;2.50;;
4595;SDS011;2310;49.978;8.742;2023-03-17T15:11:55;4.57;;;3.10;;
4595;SDS011;2310;49.978;8.742;2023-03-17T15:20:30;4.40;;;2.80;;
4595;SDS011;2310;49.978;8.742;2023-03-17T15:24:39;6.13;;;3.73;;
4595;SDS011;2310;49.978;8.742;2023-03-17T15:28:41;4.33;;;3.17;;
4595;SDS011;2310;49.978;8.742;2023-03-17T15:32:42;4.50;;;3.13;;
4595;SDS011;2310;49.978;8.742;2023-03-17T15:36:43;5.00;;;2.80;;
4595;SDS011;2310;49.978;8.742;2023-03-17T15:40:47;5.13;;;2.87;;
4595;SDS011;2310;49.978;8.742;2023-03-17T15:44:48;5.40;;;2.67;;
4595;SDS011;2310;49.978;8.742;2023-03-17T15:48:50;7.20;;;2.97;;
4595;SDS011;2310;49.978;8.742;2023-03-17T15:52:51;5.00;;;2.70;;
4595;SDS011;2310;49.978;8.742;2023-03-17T15:56:58;5.47;;;2.97;;
4595;SDS011;2310;49.978;8.742;2023-03-17T16:01:00;4.77;;;3.00;;
4595;SDS011;2310;49.978;8.742;2023-03-17T16:05:10;5.77;;;4.00;;
4595;SDS011;2310;49.978;8.742;2023-03-17T16:09:14;5.33;;;3.63;;
4595;SDS011;2310;49.978;8.742;2023-03-17T16:13:17;7.97;;;4.00;;
4595;SDS011;2310;49.978;8.742;2023-03-17T16:17:23;7.03;;;3.53;;
4595;SDS011;2310;49.978;8.742;2023-03-17T16:21:25;6.63;;;4.37;;
4595;SDS011;2310;49.978;8.742;2023-03-17T16:25:29;5.10;;;4.20;;
4595;SDS011;2310;49.978;8.742;2023-03-17T16:29:32;5.17;;;3.27;;
4595;SDS011;2310;49.978;8.742;2023-03-17T16:33:38;4.10;;;2.90;;
4595;SDS011;2310;49.978;8.742;2023-03-17T16:37:38;7.07;;;3.53;;
4595;SDS011;2310;49.978;8.742;2023-03-17T16:41:39;5.13;;;3.07;;
4595;SDS011;2310;49.978;8.742;2023-03-17T16:45:40;5.80;;;3.50;;
4595;SDS011;2310;49.978;8.742;2023-03-17T16:49:41;6.30;;;3.70;;
4595;SDS011;2310;49.978;8.742;2023-03-17T16:53:43;4.67;;;3.47;;
4595;SDS011;2310;49.978;8.742;2023-03-17T16:57:46;6.00;;;4.03;;
4595;SDS011;2310;49.978;8.742;2023-03-17T17:01:49;5.83;;;3.80;;
4595;SDS011;2310;49.978;8.742;2023-03-17T17:05:50;6.00;;;4.17;;
4595;SDS011;2310;49.978;8.742;2023-03-17T17:09:51;7.13;;;4.23;;
4595;SDS011;2310;49.978;8.742;2023-03-17T17:13:53;9.00;;;5.77;;
4595;SDS011;2310;49.978;8.742;2023-03-17T17:17:55;11.83;;;6.60;;
4595;SDS011;2310;49.978;8.742;2023-03-17T17:21:59;7.90;;;5.67;;
4595;SDS011;2310;49.978;8.742;2023-03-17T17:26:00;9.80;;;5.30;;
4595;SDS011;2310;49.978;8.742;2023-03-17T17:30:01;10.33;;;8.60;;
4595;SDS011;2310;49.978;8.742;2023-03-17T17:34:03;9.90;;;7.30;;
4595;SDS011;2310;49.978;8.742;2023-03-17T17:38:06;7.00;;;4.40;;
4595;SDS011;2310;49.978;8.742;2023-03-17T17:42:10;9.63;;;6.30;;
4595;SDS011;2310;49.978;8.742;2023-03-17T17:46:14;9.73;;;7.07;;
4595;SDS011;2310;49.978;8.742;2023-03-17T17:50:24;6.97;;;4.50;;
4595;SDS011;2310;49.978;8.742;2023-03-17T17:54:27;9.80;;;5.60;;
4595;SDS011;2310;49.978;8.742;2023-03-17T17:58:28;19.73;;;16.27;;
4595;SDS011;2310;49.978;8.742;2023-03-17T18:02:29;12.50;;;8.70;;
4595;SDS011;2310;49.978;8.742;2023-03-17T18:06:30;12.80;;;10.83;;
4595;SDS011;2310;49.978;8.742;2023-03-17T18:10:32;14.80;;;13.23;;
4595;SDS011;2310;49.978;8.742;2023-03-17T18:14:34;18.97;;;12.53;;
4595;SDS011;2310;49.978;8.742;2023-03-17T18:18:35;16.50;;;14.70;;
4595;SDS011;2310;49.978;8.742;2023-03-17T18:22:38;15.73;;;14.23;;
4595;SDS011;2310;49.978;8.742;2023-03-17T18:26:40;10.93;;;9.70;;
4595;SDS011;2310;49.978;8.742;2023-03-17T18:30:41;12.57;;;11.27;;
4595;SDS011;2310;49.978;8.742;2023-03-17T18:34:44;12.40;;;10.23;;
4595;SDS011;2310;49.978;8.742;2023-03-17T18:38:46;12.43;;;7.20;;
4595;SDS011;2310;49.978;8.742;2023-03-17T18:42:47;6.23;;;4.30;;
4595;SDS011;2310;49.978;8.742;2023-03-17T18:46:48;11.90;;;8.87;;
4595;SDS011;2310;49.978;8.742;2023-03-17T18:50:50;10.40;;;9.20;;
4595;SDS011;2310;49.978;8.742;2023-03-17T18:54:51;12.63;;;9.23;;
4595;SDS011;2310;49.978;8.742;2023-03-17T18:58:52;13.87;;;9.00;;
4595;SDS011;2310;49.978;8.742;2023-03-17T19:02:54;12.37;;;9.40;;
4595;SDS011;2310;49.978;8.742;2023-03-17T19:06:55;10.00;;;8.90;;
4595;SDS011;2310;49.978;8.742;2023-03-17T19:10:57;10.60;;;9.50;;
4595;SDS011;2310;49.978;8.742;2023-03-17T19:14:59;9.80;;;8.40;;
4595;SDS011;2310;49.978;8.742;2023-03-17T19:19:01;8.37;;;6.70;;
4595;SDS011;2310;49.978;8.742;2023-03-17T19:23:03;8.03;;;5.07;;
4595;SDS011;2310;49.978;8.742;2023-03-17T19:27:04;6.47;;;4.30;;
4595;SDS011;2310;49.978;8.742;2023-03-17T19:31:05;6.77;;;3.63;;
4595;SDS011;2310;49.978;8.742;2023-03-17T19:35:07;8.73;;;4.20;;
4595;SDS011;2310;49.978;8.742;2023-03-17T19:39:08;5.93;;;3.90;;
4595;SDS011;2310;49.978;8.742;2023-03-17T19:43:13;4.83;;;3.50;;
4595;SDS011;2310;49.978;8.742;2023-03-17T19:47:16;5.80;;;3.67;;
4595;SDS011;2310;49.978;8.742;2023-03-17T19:51:18;6.00;;;3.57;;
4595;SDS011;2310;49.978;8.742;2023-03-17T19:55:19;6.33;;;4.47;;
4595;SDS011;2310;49.978;8.742;2023-03-17T19:59:21;5.97;;;4.53;;
4595;SDS011;2310;49.978;8.742;2023-03-17T20:03:23;8.63;;;5.27;;
4595;SDS011;2310;49.978;8.742;2023-03-17T20:07:26;8.43;;;5.70;;
4595;SDS011;2310;49.978;8.742;2023-03-17T20:11:27;6.17;;;3.90;;
4595;SDS011;2310;49.978;8.742;2023-03-17T20:15:29;17.70;;;11.07;;
4595;SDS011;2310;49.978;8.742;2023-03-17T20:19:31;15.73;;;9.27;;
4595;SDS011;2310;49.978;8.742;2023-03-17T20:23:32;12.27;;;6.77;;
4595;SDS011;2310;49.978;8.742;2023-03-17T20:27:35;9.63;;;4.87;;
4595;SDS011;2310;49.978;8.742;2023-03-17T20:31:37;6.97;;;4.90;;
4595;SDS011;2310;49.978;8.742;2023-03-17T20:35:40;6.43;;;5.10;;
4595;SDS011;2310;49.978;8.742;2023-03-17T20:39:43;7.77;;;5.70;;
4595;SDS011;2310;49.978;8.742;2023-03-17T20:43:44;9.40;;;6.10;;
4595;SDS011;2310;49.978;8.742;2023-03-17T20:47:47;9.43;;;6.40;;
4595;SDS011;2310;49.978;8.742;2023-03-17T20:51:48;11.80;;;8.13;;
4595;SDS011;2310;49.978;8.742;2023-03-17T20:55:50;9.97;;;8.03;;
4595;SDS011;2310;49.978;8.742;2023-03-17T20:59:51;8.97;;;7.00;;
4595;SDS011;2310;49.978;8.742;2023-03-17T21:03:52;9.57;;;7.17;;
4595;SDS011;2310;49.978;8.742;2023-03-17T21:07:54;9.27;;;7.67;;
4595;SDS011;2310;49.978;8.742;2023-03-17T21:11:56;10.00;;;8.17;;
4595;SDS011;2310;49.978;8.742;2023-03-17T21:15:58;9.87;;;6.50;;
4595;SDS011;2310;49.978;8.742;2023-03-17T21:20:01;8.13;;;5.30;;
4595;SDS011;2310;49.978;8.742;2023-03-17T21:24:02;13.73;;;7.20;;
4595;SDS011;2310;49.978;8.742;2023-03-17T21:28:05;8.50;;;5.60;;
4595;SDS011;2310;49.978;8.742;2023-03-17T21:32:06;8.40;;;6.73;;
4595;SDS011;2310;49.978;8.742;2023-03-17T21:36:08;9.23;;;6.73;;
4595;SDS011;2310;49.978;8.742;2023-03-17T21:40:14;10.30;;;7.67;;
4595;SDS011;2310;49.978;8.742;2023-03-17T21:44:14;7.53;;;6.47;;
4595;SDS011;2310;49.978;8.742;2023-03-17T21:48:15;10.63;;;7.70;;
4595;SDS011;2310;49.978;8.742;2023-03-17T21:52:17;9.03;;;5.80;;
4595;SDS011;2310;49.978;8.742;2023-03-17T21:56:20;9.60;;;5.70;;
4595;SDS011;2310;49.978;8.742;2023-03-17T22:00:22;14.93;;;6.73;;
4595;SDS011;2310;49.978;8.742;2023-03-17T22:04:25;9.23;;;7.80;;
4595;SDS011;2310;49.978;8.742;2023-03-17T22:08:28;11.07;;;7.67;;
4595;SDS011;2310;49.978;8.742;2023-03-17T22:12:29;10.17;;;7.80;;
4595;SDS011;2310;49.978;8.742;2023-03-17T22:16:30;9.90;;;8.10;;
4595;SDS011;2310;49.978;8.742;2023-03-17T22:20:32;9.40;;;6.77;;
4595;SDS011;2310;49.978;8.742;2023-03-17T22:24:33;8.47;;;6.63;;
4595;SDS011;2310;49.978;8.742;2023-03-17T22:28:36;9.33;;;6.20;;
4595;SDS011;2310;49.978;8.742;2023-03-17T22:32:38;8.60;;;6.73;;
4595;SDS011;2310;49.978;8.742;2023-03-17T22:36:39;7.43;;;6.20;;
4595;SDS011;2310;49.978;8.742;2023-03-17T22:40:41;10.33;;;6.63;;
4595;SDS011;2310;49.978;8.742;2023-03-17T22:44:42;9.17;;;6.60;;
4595;SDS011;2310;49.978;8.742;2023-03-17T22:48:44;7.53;;;5.30;;
4595;SDS011;2310;49.978;8.742;2023-03-17T22:52:46;8.60;;;5.60;;
4595;SDS011;2310;49.978;8.742;2023-03-17T22:56:48;7.20;;;5.10;;
4595;SDS011;2310;49.978;8.742;2023-03-17T23:00:49;8.87;;;5.67;;
4595;SDS011;2310;49.978;8.742;2023-03-17T23:04:51;8.17;;;5.80;;
4595;SDS011;2310;49.978;8.742;2023-03-17T23:08:52;14.20;;;6.37;;
4595;SDS011;2310;49.978;8.742;2023-03-17T23:12:54;8.13;;;6.50;;
4595;SDS011;2310;49.978;8.742;2023-03-17T23:17:00;9.20;;;6.30;;
4595;SDS011;2310;49.978;8.742;2023-03-17T23:21:10;10.43;;;6.30;;
4595;SDS011;2310;49.978;8.742;2023-03-17T23:25:05;6.23;;;4.90;;
4595;SDS011;2310;49.978;8.742;2023-03-17T23:29:07;8.30;;;5.87;;
4595;SDS011;2310;49.978;8.742;2023-03-17T23:33:10;10.50;;;5.83;;
4595;SDS011;2310;49.978;8.742;2023-03-17T23:37:12;7.57;;;6.00;;
4595;SDS011;2310;49.978;8.742;2023-03-17T23:41:13;7.10;;;5.90;;
4595;SDS011;2310;49.978;8.742;2023-03-17T23:45:15;8.03;;;5.77;;
4595;SDS011;2310;49.978;8.742;2023-03-17T23:49:17;9.80;;;6.87;;
4595;SDS011;2310;49.978;8.742;2023-03-17T23:53:19;8.90;;;6.60;;
4595;SDS011;2310;49.978;8.742;2023-03-17T23:57:21;9.23;;;7.40;;
